Time;durP1;ratioP1;P1;durP2;ratioP2;P2;SDS_P1;SDS_P2;PMS_P1;PMS_P2;Temp;Humidity;BMP_temperature;BMP_pressure;BME280_temperature;BME280_humidity;BME280_pressure;Samples;Min_cycle;Max_cycle;Signal;HPM_P1;HPM_P2
2023/08/21 00:01:19;;;;;;;2.92;1.90;;;22.60;64.60;;;;;;6194578;28;20038;-70
2023/08/21 00:04:19;;;;;;;2.63;1.85;;;22.60;64.60;;;;;;6194270;28;20103;-71
2023/08/21 00:07:20;;;;;;;2.75;1.60;;;22.60;64.70;;;;;;6194038;28;20022;-70
2023/08/21 00:10:21;;;;;;;2.70;1.70;;;22.60;64.60;;;;;;6193385;28;20513;-70
2023/08/21 00:13:21;;;;;;;2.90;1.80;;;22.60;64.60;;;;;;6194009;28;20026;-70
2023/08/21 00:16:23;;;;;;;2.72;1.60;;;22.60;64.70;;;;;;6193867;28;20034;-70
2023/08/21 00:19:23;;;;;;;3.75;2.00;;;22.60;64.60;;;;;;6193458;28;20030;-70
2023/08/21 00:22:24;;;;;;;4.18;1.65;;;22.60;65.50;;;;;;6193864;28;20026;-69
2023/08/21 00:25:25;;;;;;;2.72;1.60;;;22.60;64.60;;;;;;6193633;28;20428;-70
2023/08/21 00:28:25;;;;;;;2.90;1.83;;;22.60;64.60;;;;;;6193955;28;20034;-70
2023/08/21 00:31:26;;;;;;;3.78;1.88;;;22.60;64.60;;;;;;6193896;28;20030;-70
2023/08/21 00:34:26;;;;;;;2.85;1.75;;;22.60;64.60;;;;;;6193452;28;20023;-70
2023/08/21 00:37:27;;;;;;;3.17;1.60;;;22.60;64.60;;;;;;6194218;28;20018;-71
2023/08/21 00:40:28;;;;;;;1.98;1.55;;;22.60;64.70;;;;;;6193754;28;20089;-71
2023/08/21 00:43:28;;;;;;;3.90;1.90;;;22.60;64.60;;;;;;6193637;28;20146;-70
2023/08/21 00:46:29;;;;;;;2.15;1.50;;;22.60;64.60;;;;;;6193557;28;20019;-70
2023/08/21 00:49:30;;;;;;;2.30;1.50;;;22.60;64.60;;;;;;6193596;28;20038;-70
2023/08/21 00:52:31;;;;;;;3.58;1.58;;;22.60;64.60;;;;;;6193879;28;20361;-70
2023/08/21 00:55:32;;;;;;;2.97;1.73;;;22.60;64.70;;;;;;6193228;28;20098;-70
2023/08/21 00:58:33;;;;;;;2.45;1.83;;;22.60;64.60;;;;;;6193587;28;20424;-70
2023/08/21 01:01:34;;;;;;;1.88;1.30;;;22.60;64.70;;;;;;6197249;28;20118;-70
2023/08/21 01:04:35;;;;;;;2.92;1.45;;;22.60;64.70;;;;;;6193380;28;20067;-70
2023/08/21 01:07:48;;;;;;;3.40;1.70;;;22.60;64.70;;;;;;6193738;28;20030;-70
2023/08/21 01:10:56;;;;;;;2.13;1.38;;;22.60;64.70;;;;;;6193019;28;20493;-71
2023/08/21 01:14:29;;;;;;;2.97;1.60;;;22.60;64.70;;;;;;6193402;28;20026;-70
2023/08/21 01:17:30;;;;;;;2.55;1.40;;;22.60;65.20;;;;;;6193822;28;20535;-70
2023/08/21 01:20:31;;;;;;;1.40;1.10;;;22.60;64.70;;;;;;6192735;28;20057;-70
2023/08/21 01:23:38;;;;;;;2.53;1.48;;;22.60;64.70;;;;;;6197841;28;20118;-70
2023/08/21 01:26:38;;;;;;;2.10;1.30;;;22.60;64.70;;;;;;6197401;28;20115;-70
2023/08/21 01:29:39;;;;;;;2.25;1.60;;;22.60;64.70;;;;;;6197557;28;20027;-70
2023/08/21 01:33:05;;;;;;;1.80;1.40;;;22.60;64.70;;;;;;6197617;28;20080;-70
2023/08/21 01:36:06;;;;;;;2.35;1.33;;;22.50;64.60;;;;;;6173299;28;20074;-70
2023/08/21 01:39:06;;;;;;;3.15;1.50;;;22.60;64.70;;;;;;6183844;28;20026;-70
2023/08/21 01:42:07;;;;;;;1.70;1.25;;;22.60;64.70;;;;;;6197151;28;20050;-70
2023/08/21 01:45:08;;;;;;;1.90;1.45;;;22.60;64.70;;;;;;6197143;28;20054;-70
2023/08/21 01:48:09;;;;;;;2.22;1.50;;;22.50;64.60;;;;;;6196812;28;20050;-70
2023/08/21 01:51:09;;;;;;;1.90;1.38;;;22.60;64.70;;;;;;6197198;28;20109;-71
2023/08/21 01:54:10;;;;;;;2.45;1.70;;;22.60;64.70;;;;;;6197034;28;20022;-70
2023/08/21 01:57:10;;;;;;;2.17;1.50;;;22.50;64.60;;;;;;6195653;28;20061;-70
2023/08/21 02:00:12;;;;;;;1.88;1.27;;;22.60;64.70;;;;;;6196919;28;20030;-70
2023/08/21 02:03:13;;;;;;;1.90;1.30;;;22.60;64.70;;;;;;6197061;28;20033;-71
2023/08/21 02:06:14;;;;;;;2.05;1.33;;;22.60;64.70;;;;;;6196636;28;20679;-70
2023/08/21 02:09:14;;;;;;;1.92;1.23;;;22.60;64.70;;;;;;6196970;28;20500;-70
2023/08/21 02:12:15;;;;;;;1.92;1.30;;;22.60;64.70;;;;;;6196590;28;20377;-70
2023/08/21 02:15:16;;;;;;;1.38;1.10;;;22.60;64.70;;;;;;6196337;28;20161;-70
2023/08/21 02:18:16;;;;;;;1.92;1.10;;;22.60;64.70;;;;;;6196712;28;20715;-71
2023/08/21 02:21:17;;;;;;;2.17;1.48;;;22.60;64.70;;;;;;6196134;28;20635;-69
2023/08/21 02:24:17;;;;;;;1.25;1.00;;;22.60;64.70;;;;;;6196772;28;20022;-70
2023/08/21 02:27:18;;;;;;;1.63;1.17;;;22.60;64.70;;;;;;6196166;28;20480;-70
2023/08/21 02:30:20;;;;;;;2.15;1.38;;;22.60;64.70;;;;;;6196292;28;20025;-70
2023/08/21 02:33:20;;;;;;;2.08;1.20;;;22.60;64.70;;;;;;6194949;28;20138;-70
2023/08/21 02:36:21;;;;;;;2.10;1.27;;;22.60;64.70;;;;;;6196046;28;20030;-70
2023/08/21 02:39:22;;;;;;;1.75;1.17;;;22.60;64.70;;;;;;6196183;28;20461;-70
2023/08/21 02:42:22;;;;;;;1.48;1.27;;;22.60;64.70;;;;;;6195591;28;20046;-71
2023/08/21 02:45:23;;;;;;;1.38;1.00;;;22.60;64.70;;;;;;6196014;28;20080;-71
2023/08/21 02:48:23;;;;;;;1.75;1.25;;;22.60;64.70;;;;;;6195762;28;20034;-70
2023/08/21 02:51:24;;;;;;;1.55;1.13;;;22.60;64.70;;;;;;6195694;28;20110;-70
2023/08/21 02:54:24;;;;;;;1.40;1.15;;;22.50;64.60;;;;;;6195694;28;20508;-71
2023/08/21 02:57:25;;;;;;;1.95;1.30;;;22.60;64.70;;;;;;6195780;28;20049;-70
2023/08/21 03:00:26;;;;;;;1.60;1.10;;;22.60;64.70;;;;;;6195467;28;20039;-71
2023/08/21 03:03:27;;;;;;;1.50;1.30;;;22.60;64.70;;;;;;6194941;28;20019;-70
2023/08/21 03:06:27;;;;;;;1.45;1.17;;;22.50;64.60;;;;;;6195600;28;20029;-70
2023/08/21 03:09:28;;;;;;;1.40;1.10;;;22.60;64.70;;;;;;6193639;28;20042;-70
2023/08/21 03:12:28;;;;;;;1.70;1.08;;;22.60;64.70;;;;;;6195515;28;20126;-70
2023/08/21 03:15:29;;;;;;;1.55;1.17;;;22.60;64.70;;;;;;6194634;28;20385;-69
2023/08/21 03:18:31;;;;;;;3.55;1.23;;;22.60;64.70;;;;;;6195439;28;20026;-69
2023/08/21 03:21:31;;;;;;;1.48;1.17;;;22.60;64.70;;;;;;6194637;28;20114;-70
2023/08/21 03:24:32;;;;;;;1.63;1.33;;;22.60;64.70;;;;;;6195493;28;20301;-70
2023/08/21 03:27:33;;;;;;;1.10;1.00;;;22.50;64.60;;;;;;6194677;28;20019;-70
2023/08/21 03:30:33;;;;;;;1.80;1.10;;;22.60;64.80;;;;;;6194976;28;20105;-69
2023/08/21 03:33:34;;;;;;;1.33;0.95;;;22.60;64.70;;;;;;6194826;28;20042;-70
2023/08/21 03:36:37;;;;;;;2.22;1.40;;;22.60;64.70;;;;;;6194939;28;20032;-70
2023/08/21 03:39:38;;;;;;;1.58;1.17;;;22.50;64.60;;;;;;6194899;28;20030;-69
2023/08/21 03:42:39;;;;;;;2.05;1.35;;;22.50;64.60;;;;;;6194314;28;20141;-70
2023/08/21 03:45:40;;;;;;;1.42;1.10;;;22.60;64.70;;;;;;6195408;28;20072;-70
2023/08/21 03:48:40;;;;;;;2.05;1.17;;;22.50;64.70;;;;;;6195105;28;20085;-70
2023/08/21 03:51:41;;;;;;;2.28;1.30;;;22.60;64.80;;;;;;6195089;28;20050;-70
2023/08/21 03:54:41;;;;;;;1.80;1.35;;;22.60;64.80;;;;;;6194621;28;20033;-70
2023/08/21 03:57:42;;;;;;;1.55;1.15;;;22.60;64.70;;;;;;6195732;28;20033;-70
2023/08/21 04:00:43;;;;;;;1.35;0.98;;;22.60;64.70;;;;;;6195848;28;20027;-70
2023/08/21 04:03:43;;;;;;;2.45;1.40;;;22.60;64.80;;;;;;6194196;28;20065;-69
2023/08/21 04:06:44;;;;;;;1.40;0.93;;;22.60;64.80;;;;;;6194957;28;20401;-70
2023/08/21 04:09:44;;;;;;;0.85;0.85;;;22.60;64.80;;;;;;6193667;28;20066;-70
2023/08/21 04:12:45;;;;;;;1.20;1.02;;;22.60;64.80;;;;;;6194882;28;20026;-71
2023/08/21 04:15:46;;;;;;;1.25;0.93;;;22.60;64.80;;;;;;6193887;28;20022;-71
2023/08/21 04:18:47;;;;;;;1.60;1.08;;;22.60;64.80;;;;;;6193151;28;20505;-70
2023/08/21 04:21:47;;;;;;;2.15;1.17;;;22.50;64.70;;;;;;6193649;28;20053;-70
2023/08/21 04:24:48;;;;;;;1.25;1.13;;;22.50;64.70;;;;;;6194463;28;20029;-71
2023/08/21 04:27:48;;;;;;;1.60;1.13;;;22.60;64.80;;;;;;6194172;28;20075;-70
2023/08/21 04:30:49;;;;;;;3.72;1.02;;;22.60;64.90;;;;;;6194436;28;20027;-70
2023/08/21 04:33:49;;;;;;;1.52;1.13;;;22.60;64.80;;;;;;6194802;28;20033;-70
2023/08/21 04:36:50;;;;;;;1.50;1.10;;;22.60;64.80;;;;;;6194509;28;20069;-70
2023/08/21 04:39:51;;;;;;;2.08;1.00;;;22.50;64.70;;;;;;6193491;28;20026;-70
2023/08/21 04:42:52;;;;;;;1.10;1.00;;;22.50;64.70;;;;;;6193555;28;20037;-70
2023/08/21 04:45:53;;;;;;;1.80;1.17;;;22.50;64.70;;;;;;6193682;28;20034;-70
2023/08/21 04:48:54;;;;;;;1.67;1.25;;;22.60;64.80;;;;;;6195770;28;20034;-70
2023/08/21 04:51:55;;;;;;;1.45;1.10;;;22.60;64.80;;;;;;6193294;28;20037;-72
2023/08/21 04:54:56;;;;;;;1.92;1.10;;;22.60;64.80;;;;;;6193668;28;20026;-70
2023/08/21 04:57:56;;;;;;;1.38;0.90;;;22.60;64.80;;;;;;6196526;28;20030;-70
2023/08/21 05:00:57;;;;;;;1.20;0.93;;;22.60;64.90;;;;;;6199166;28;20424;-71
2023/08/21 05:03:57;;;;;;;1.20;1.00;;;22.60;64.90;;;;;;6196535;28;20030;-70
2023/08/21 05:06:58;;;;;;;0.90;0.80;;;22.60;64.80;;;;;;6198119;28;20050;-71
2023/08/21 05:10:00;;;;;;;1.15;0.90;;;22.60;64.90;;;;;;6197993;28;20042;-70
2023/08/21 05:13:03;;;;;;;3.42;1.05;;;22.60;64.90;;;;;;6197977;28;20027;-70
2023/08/21 05:16:04;;;;;;;1.33;0.90;;;22.60;64.80;;;;;;6197927;28;20442;-69
2023/08/21 05:19:04;;;;;;;1.35;0.93;;;22.60;64.90;;;;;;6188671;28;20026;-70
2023/08/21 05:22:05;;;;;;;1.20;1.00;;;22.50;64.70;;;;;;6178633;28;20572;-70
2023/08/21 05:25:07;;;;;;;1.15;0.90;;;22.60;64.90;;;;;;6197533;28;20232;-70
2023/08/21 05:28:07;;;;;;;1.60;0.93;;;22.60;64.90;;;;;;6197833;28;20315;-69
2023/08/21 05:31:08;;;;;;;1.42;0.80;;;22.60;64.90;;;;;;6197379;28;20534;-70
2023/08/21 05:34:09;;;;;;;1.50;0.90;;;22.60;64.90;;;;;;6197441;28;20022;-70
2023/08/21 05:37:09;;;;;;;1.70;0.82;;;22.60;64.90;;;;;;6197576;28;20302;-71
2023/08/21 05:40:10;;;;;;;1.20;1.02;;;22.50;64.70;;;;;;6197871;28;20034;-71
2023/08/21 05:43:11;;;;;;;0.82;0.77;;;22.60;64.90;;;;;;6196802;28;20053;-70
2023/08/21 05:46:11;;;;;;;1.50;0.90;;;22.50;64.70;;;;;;6197234;28;20496;-71
2023/08/21 05:49:12;;;;;;;0.98;0.90;;;22.60;64.90;;;;;;6196982;28;20432;-70
2023/08/21 05:52:12;;;;;;;1.63;0.98;;;22.60;64.90;;;;;;6196840;28;20037;-72
2023/08/21 05:55:13;;;;;;;1.30;1.00;;;22.50;64.70;;;;;;6184562;28;20030;-70
2023/08/21 05:58:14;;;;;;;1.42;1.00;;;22.60;64.90;;;;;;6195320;28;20033;-70
2023/08/21 06:01:14;;;;;;;0.73;0.70;;;22.50;64.80;;;;;;6190462;28;20061;-70
2023/08/21 06:04:15;;;;;;;0.90;0.80;;;22.60;64.90;;;;;;6198194;28;20033;-70
2023/08/21 06:07:16;;;;;;;1.13;0.88;;;22.60;64.90;;;;;;6197291;28;20057;-71
2023/08/21 06:10:16;;;;;;;0.80;0.70;;;22.60;64.90;;;;;;6198068;28;20061;-70
2023/08/21 06:13:17;;;;;;;1.00;0.80;;;22.60;64.90;;;;;;6197225;28;20031;-70
2023/08/21 06:16:18;;;;;;;1.50;0.82;;;22.60;64.90;;;;;;6197751;28;20038;-71
2023/08/21 06:19:18;;;;;;;1.08;0.80;;;22.50;64.80;;;;;;6197612;28;20109;-70
2023/08/21 06:22:19;;;;;;;1.48;0.80;;;22.60;64.90;;;;;;6197881;28;20038;-70
2023/08/21 06:25:19;;;;;;;4.10;0.90;;;22.50;64.70;;;;;;6196426;28;20136;-71
2023/08/21 06:28:20;;;;;;;1.50;0.90;;;22.60;67.70;;;;;;6201250;28;20022;-70
2023/08/21 06:31:21;;;;;;;47.63;1.73;;;22.60;66.80;;;;;;6196314;28;20026;-71
2023/08/21 06:34:21;;;;;;;32.28;1.10;;;22.70;66.10;;;;;;6198073;28;20069;-70
2023/08/21 06:37:22;;;;;;;5.95;1.00;;;22.70;65.60;;;;;;6196153;28;20342;-71
2023/08/21 06:40:22;;;;;;;3.10;1.10;;;22.80;65.60;;;;;;6196352;28;20563;-70
2023/08/21 06:43:23;;;;;;;4.53;1.00;;;22.80;65.60;;;;;;6196510;28;20026;-70
2023/08/21 06:46:24;;;;;;;4.28;0.90;;;22.80;65.40;;;;;;6197312;28;20026;-70
2023/08/21 06:49:24;;;;;;;1.65;0.90;;;22.80;65.30;;;;;;6196528;28;20477;-70
2023/08/21 06:52:25;;;;;;;6.22;0.90;;;22.80;65.20;;;;;;6196057;28;20380;-73
2023/08/21 06:55:26;;;;;;;1.52;0.90;;;22.70;65.10;;;;;;6196854;28;20046;-71
2023/08/21 06:58:27;;;;;;;0.90;0.75;;;22.80;65.10;;;;;;6196416;28;20358;-71
2023/08/21 07:01:28;;;;;;;1.08;0.80;;;22.80;65.00;;;;;;6196412;28;20030;-72
2023/08/21 07:04:29;;;;;;;1.20;0.77;;;22.80;65.20;;;;;;6196696;28;20033;-71
2023/08/21 07:07:29;;;;;;;1.30;0.90;;;22.90;64.90;;;;;;6196294;28;20046;-72
2023/08/21 07:10:31;;;;;;;2.78;0.90;;;22.90;64.80;;;;;;6196273;28;20539;-71
2023/08/21 07:13:32;;;;;;;0.85;0.70;;;22.90;64.80;;;;;;6196370;28;20033;-72
2023/08/21 07:16:32;;;;;;;1.15;0.77;;;22.90;64.70;;;;;;6196617;28;20026;-72
2023/08/21 07:19:33;;;;;;;2.03;0.80;;;22.90;64.80;;;;;;6196015;28;20109;-71
2023/08/21 07:22:33;;;;;;;1.13;0.82;;;22.90;64.70;;;;;;6196204;28;20031;-71
2023/08/21 07:25:34;;;;;;;2.00;0.90;;;22.90;64.70;;;;;;6196199;28;20022;-72
2023/08/21 07:28:35;;;;;;;0.90;0.60;;;22.90;64.60;;;;;;6196318;28;20027;-72
2023/08/21 07:31:35;;;;;;;1.33;0.77;;;22.90;64.50;;;;;;6196414;28;20026;-72
2023/08/21 07:34:36;;;;;;;1.27;0.85;;;22.90;64.50;;;;;;6195862;28;20045;-72
2023/08/21 07:37:36;;;;;;;1.10;0.80;;;22.90;64.40;;;;;;6196119;28;20037;-72
2023/08/21 07:40:37;;;;;;;1.15;0.70;;;22.90;64.40;;;;;;6196129;28;20066;-71
2023/08/21 07:43:42;;;;;;;1.02;0.75;;;22.90;64.40;;;;;;6195506;28;20022;-71
2023/08/21 07:46:42;;;;;;;1.40;0.90;;;23.00;64.50;;;;;;6195859;28;20503;-71
2023/08/21 07:49:43;;;;;;;1.48;0.90;;;22.90;64.30;;;;;;6195206;28;20023;-71
2023/08/21 07:52:44;;;;;;;1.00;0.80;;;23.00;64.40;;;;;;6195256;28;20105;-72
2023/08/21 07:55:45;;;;;;;1.63;0.75;;;23.00;64.40;;;;;;6195985;28;20029;-72
2023/08/21 07:58:46;;;;;;;1.15;0.80;;;22.90;64.30;;;;;;6194923;28;20037;-72
2023/08/21 08:01:46;;;;;;;2.03;1.10;;;22.90;64.30;;;;;;6195717;28;20030;-72
2023/08/21 08:04:47;;;;;;;1.17;0.90;;;23.00;64.40;;;;;;6194546;28;20022;-72
2023/08/21 08:07:47;;;;;;;1.05;0.65;;;23.00;64.40;;;;;;6195194;28;20393;-71
2023/08/21 08:10:48;;;;;;;1.02;0.77;;;23.00;64.40;;;;;;6194882;28;20065;-72
2023/08/21 08:13:49;;;;;;;0.82;0.68;;;22.90;64.30;;;;;;6195198;28;20156;-71
2023/08/21 08:16:49;;;;;;;0.70;0.70;;;23.00;64.40;;;;;;6194941;28;20404;-72
2023/08/21 08:19:50;;;;;;;2.38;0.88;;;23.00;64.30;;;;;;6193804;28;20062;-72
2023/08/21 08:22:50;;;;;;;0.70;0.60;;;23.00;64.30;;;;;;6194881;28;20031;-71
2023/08/21 08:25:51;;;;;;;1.77;1.10;;;23.00;64.30;;;;;;6194164;28;20153;-72
2023/08/21 08:28:52;;;;;;;1.80;0.70;;;23.00;64.30;;;;;;6194285;28;20389;-72
2023/08/21 08:31:52;;;;;;;1.00;0.90;;;23.00;64.30;;;;;;6196720;28;20413;-72
2023/08/21 08:34:53;;;;;;;0.68;0.63;;;23.00;64.30;;;;;;6199450;28;20097;-72
2023/08/21 08:37:54;;;;;;;0.80;0.70;;;23.00;64.30;;;;;;6200526;28;20027;-71
2023/08/21 08:40:57;;;;;;;0.88;0.80;;;23.00;64.30;;;;;;6199178;28;20049;-71
2023/08/21 08:44:00;;;;;;;0.60;0.60;;;23.00;64.30;;;;;;6199729;28;20105;-72
2023/08/21 08:47:01;;;;;;;1.48;0.70;;;23.00;64.30;;;;;;6199740;28;20065;-72
2023/08/21 08:50:04;;;;;;;1.08;0.80;;;23.00;64.20;;;;;;6199053;28;20141;-72
2023/08/21 08:53:07;;;;;;;0.90;0.73;;;23.00;64.30;;;;;;6199816;28;20030;-72
2023/08/21 08:56:08;;;;;;;0.73;0.60;;;23.00;64.20;;;;;;6199372;28;20030;-72
2023/08/21 08:59:09;;;;;;;1.25;1.00;;;23.00;64.20;;;;;;6198949;28;20394;-72
2023/08/21 09:02:09;;;;;;;1.20;0.90;;;23.00;64.20;;;;;;6199289;28;20027;-72
2023/08/21 09:05:10;;;;;;;0.60;0.60;;;23.00;64.10;;;;;;6198992;28;20057;-72
2023/08/21 09:08:14;;;;;;;0.77;0.68;;;23.00;64.10;;;;;;6200154;28;20539;-72
2023/08/21 09:11:17;;;;;;;1.00;0.90;;;23.00;64.10;;;;;;6198806;28;20477;-72
2023/08/21 09:14:27;;;;;;;1.00;0.70;;;23.00;64.10;;;;;;6198553;28;20277;-72
2023/08/21 09:17:30;;;;;;;0.63;0.60;;;23.00;64.10;;;;;;6199656;28;20033;-72
2023/08/21 09:20:35;;;;;;;0.70;0.70;;;23.00;64.10;;;;;;6198992;28;20058;-72
2023/08/21 09:23:37;;;;;;;0.65;0.60;;;23.00;64.00;;;;;;6199686;28;20027;-72
2023/08/21 09:26:38;;;;;;;1.38;0.85;;;23.00;64.00;;;;;;6197955;28;20022;-71
2023/08/21 09:29:42;;;;;;;0.65;0.63;;;23.00;64.10;;;;;;6198838;28;20512;-72
2023/08/21 09:32:54;;;;;;;0.50;0.50;;;23.00;64.00;;;;;;6199134;28;20117;-72
2023/08/21 09:35:55;;;;;;;0.70;0.68;;;23.00;64.00;;;;;;6197043;28;20046;-72
2023/08/21 09:38:56;;;;;;;0.70;0.65;;;23.10;64.10;;;;;;6199117;28;20034;-71
2023/08/21 09:41:57;;;;;;;0.68;0.65;;;23.00;64.00;;;;;;6198016;28;20074;-72
2023/08/21 09:44:58;;;;;;;1.17;0.75;;;23.00;64.00;;;;;;6198273;28;20030;-72
2023/08/21 09:47:59;;;;;;;0.90;0.75;;;23.10;64.10;;;;;;6214559;28;20037;-71
2023/08/21 09:51:04;;;;;;;0.90;0.80;;;23.00;64.00;;;;;;6197083;28;20151;-72
2023/08/21 09:54:06;;;;;;;0.73;0.70;;;23.10;64.10;;;;;;6197317;28;20049;-72
2023/08/21 09:57:06;;;;;;;0.80;0.63;;;23.10;64.10;;;;;;6198243;28;20034;-72
2023/08/21 10:00:15;;;;;;;0.90;0.70;;;23.10;64.00;;;;;;6197691;28;20026;-72
2023/08/21 10:03:20;;;;;;;0.98;0.65;;;23.10;64.00;;;;;;6198197;28;20046;-72
2023/08/21 10:06:23;;;;;;;0.88;0.68;;;23.10;64.00;;;;;;6193244;28;20059;-72
2023/08/21 10:09:25;;;;;;;1.67;0.80;;;23.10;63.90;;;;;;6197891;28;20511;-72
2023/08/21 10:12:26;;;;;;;1.02;0.80;;;23.10;64.10;;;;;;6195288;28;20511;-72
2023/08/21 10:15:32;;;;;;;1.13;0.80;;;23.10;63.90;;;;;;6197132;28;20030;-72
2023/08/21 10:18:35;;;;;;;0.47;0.40;;;23.10;63.90;;;;;;6197685;28;20041;-72
2023/08/21 10:21:37;;;;;;;0.95;0.70;;;23.10;63.90;;;;;;6197532;28;20038;-72
2023/08/21 10:24:38;;;;;;;0.52;0.45;;;23.10;63.90;;;;;;6197153;28;20037;-72
2023/08/21 10:27:41;;;;;;;0.50;0.50;;;23.10;63.90;;;;;;6197200;28;20026;-72
2023/08/21 10:30:42;;;;;;;0.70;0.52;;;23.10;63.90;;;;;;6197089;28;20038;-72
2023/08/21 10:33:46;;;;;;;1.00;0.70;;;23.10;63.90;;;;;;6197356;28;20452;-72
2023/08/21 10:36:47;;;;;;;0.90;0.57;;;23.10;63.90;;;;;;6196781;28;20030;-72
2023/08/21 10:39:56;;;;;;;1.00;0.52;;;23.10;63.90;;;;;;6197257;28;20030;-72
2023/08/21 10:42:57;;;;;;;0.77;0.70;;;23.10;63.90;;;;;;6196506;28;20045;-72
2023/08/21 10:45:57;;;;;;;0.85;0.80;;;23.10;63.90;;;;;;6196590;28;20385;-72
2023/08/21 10:48:58;;;;;;;0.52;0.50;;;23.10;63.90;;;;;;6196973;28;20155;-72
2023/08/21 10:51:59;;;;;;;0.88;0.77;;;23.10;63.90;;;;;;6196863;28;20025;-72
2023/08/21 10:55:00;;;;;;;0.50;0.50;;;23.10;63.90;;;;;;6196507;28;20031;-72
2023/08/21 10:58:02;;;;;;;0.88;0.55;;;23.10;63.90;;;;;;6196285;28;20022;-72
2023/08/21 11:01:03;;;;;;;0.68;0.60;;;23.10;63.90;;;;;;6188616;28;20154;-72
2023/08/21 11:04:03;;;;;;;0.50;0.45;;;23.10;63.90;;;;;;6195674;28;20398;-72
2023/08/21 11:07:04;;;;;;;0.88;0.60;;;23.10;63.90;;;;;;6184552;28;20065;-72
2023/08/21 11:10:08;;;;;;;0.60;0.60;;;23.10;63.90;;;;;;6196269;28;20128;-72
2023/08/21 11:13:09;;;;;;;1.05;0.57;;;23.10;63.80;;;;;;6195938;28;20439;-72
2023/08/21 11:16:10;;;;;;;0.50;0.50;;;23.10;63.90;;;;;;6184087;28;20030;-72
2023/08/21 11:19:10;;;;;;;0.70;0.52;;;23.10;63.90;;;;;;6196057;28;20030;-72
2023/08/21 11:22:11;;;;;;;1.00;0.52;;;23.10;63.80;;;;;;6196316;28;20121;-72
2023/08/21 11:25:15;;;;;;;0.68;0.50;;;23.10;63.90;;;;;;6196195;28;20062;-72
2023/08/21 11:28:16;;;;;;;0.70;0.50;;;23.10;63.90;;;;;;6196159;28;20011;-72
2023/08/21 11:31:17;;;;;;;0.70;0.65;;;23.10;63.80;;;;;;6195675;28;20026;-72
2023/08/21 11:34:19;;;;;;;0.68;0.50;;;23.10;63.80;;;;;;6195840;28;20019;-73
2023/08/21 11:37:27;;;;;;;0.50;0.50;;;23.10;63.80;;;;;;6195425;28;20439;-72
2023/08/21 11:40:27;;;;;;;0.47;0.47;;;23.10;63.90;;;;;;6195890;28;20034;-71
2023/08/21 11:43:39;;;;;;;1.10;0.60;;;23.10;63.80;;;;;;6183463;28;20077;-71
2023/08/21 11:46:41;;;;;;;0.57;0.50;;;23.10;63.90;;;;;;6192978;28;20053;-72
2023/08/21 11:49:43;;;;;;;0.70;0.70;;;23.10;63.80;;;;;;6194139;28;20027;-72
2023/08/21 11:52:44;;;;;;;0.85;0.60;;;23.10;63.80;;;;;;6210023;28;20027;-72
2023/08/21 11:55:47;;;;;;;0.90;0.60;;;23.10;63.90;;;;;;6194875;28;20077;-72
2023/08/21 11:58:49;;;;;;;0.50;0.50;;;23.20;63.90;;;;;;6193103;28;20022;-72
2023/08/21 12:01:52;;;;;;;0.50;0.50;;;23.10;63.80;;;;;;6195201;28;20041;-72
2023/08/21 12:04:53;;;;;;;0.93;0.60;;;23.20;63.90;;;;;;6194592;28;20405;-72
2023/08/21 12:07:54;;;;;;;0.55;0.50;;;23.20;63.90;;;;;;6194807;28;20470;-74
2023/08/21 12:10:55;;;;;;;0.57;0.43;;;23.20;63.90;;;;;;6188514;28;20073;-72
2023/08/21 12:13:56;;;;;;;0.50;0.50;;;23.10;63.80;;;;;;6203648;28;20038;-71
2023/08/21 12:16:56;;;;;;;0.40;0.40;;;23.20;63.90;;;;;;6194958;28;20030;-71
2023/08/21 12:19:57;;;;;;;0.68;0.65;;;23.10;63.80;;;;;;6192999;28;20041;-72
2023/08/21 12:22:57;;;;;;;1.02;0.52;;;23.10;63.80;;;;;;6184868;28;20038;-71
2023/08/21 12:25:59;;;;;;;0.40;0.40;;;23.20;63.90;;;;;;6195886;28;20196;-72
2023/08/21 12:29:02;;;;;;;0.70;0.60;;;23.10;63.80;;;;;;6183897;28;20028;-73
2023/08/21 12:32:03;;;;;;;0.47;0.47;;;23.10;63.80;;;;;;6194629;28;20019;-72
2023/08/21 12:35:04;;;;;;;1.17;0.50;;;23.10;63.70;;;;;;6194195;28;20504;-72
2023/08/21 12:38:12;;;;;;;0.55;0.50;;;23.20;63.80;;;;;;6195082;28;20027;-72
2023/08/21 12:41:12;;;;;;;0.55;0.40;;;23.10;63.80;;;;;;6193646;28;20034;-72
2023/08/21 12:44:13;;;;;;;0.52;0.50;;;23.10;63.80;;;;;;6194487;28;20089;-72
2023/08/21 12:47:14;;;;;;;0.45;0.40;;;23.20;63.80;;;;;;6194675;28;20022;-72
2023/08/21 12:50:14;;;;;;;0.60;0.50;;;23.20;63.80;;;;;;6194055;28;20470;-72
2023/08/21 12:53:15;;;;;;;0.60;0.50;;;23.20;63.90;;;;;;6194061;28;20073;-72
2023/08/21 12:56:16;;;;;;;0.38;0.38;;;23.20;63.80;;;;;;6194810;28;20026;-72
2023/08/21 12:59:17;;;;;;;1.92;0.57;;;23.20;63.80;;;;;;6193799;28;20034;-72
2023/08/21 13:02:18;;;;;;;0.70;0.55;;;23.20;63.80;;;;;;6194305;28;20481;-72
2023/08/21 13:05:19;;;;;;;1.05;0.52;;;23.20;63.80;;;;;;6194142;28;20540;-72
2023/08/21 13:08:20;;;;;;;0.63;0.40;;;23.20;63.80;;;;;;6194517;28;20022;-72
2023/08/21 13:11:21;;;;;;;0.45;0.40;;;23.20;63.90;;;;;;6193815;28;20202;-72
2023/08/21 13:14:22;;;;;;;0.40;0.40;;;23.20;63.80;;;;;;6193687;28;20485;-72
2023/08/21 13:17:22;;;;;;;0.70;0.50;;;23.20;63.90;;;;;;6194996;28;20084;-72
2023/08/21 13:20:23;;;;;;;1.48;0.55;;;23.20;63.80;;;;;;6198665;28;20506;-72
2023/08/21 13:23:24;;;;;;;0.63;0.43;;;23.20;63.80;;;;;;6197996;28;20366;-72
2023/08/21 13:26:25;;;;;;;0.85;0.50;;;23.20;63.80;;;;;;6198663;28;20030;-72
2023/08/21 13:29:26;;;;;;;0.43;0.35;;;23.20;63.90;;;;;;6198055;28;20065;-72
2023/08/21 13:32:26;;;;;;;0.65;0.50;;;23.20;63.90;;;;;;6197842;28;20026;-72
2023/08/21 13:35:27;;;;;;;0.50;0.50;;;23.20;63.90;;;;;;6198068;28;20025;-72
2023/08/21 13:38:28;;;;;;;0.47;0.43;;;23.20;63.90;;;;;;6198661;28;20109;-72
2023/08/21 13:41:28;;;;;;;0.52;0.47;;;23.20;63.90;;;;;;6197525;28;20030;-72
2023/08/21 13:44:29;;;;;;;0.50;0.40;;;23.20;63.90;;;;;;6197900;28;20551;-72
2023/08/21 13:47:29;;;;;;;0.65;0.50;;;23.20;63.90;;;;;;6198313;28;20034;-73
2023/08/21 13:50:30;;;;;;;0.40;0.40;;;23.20;63.90;;;;;;6196984;28;20026;-72
2023/08/21 13:53:31;;;;;;;1.25;0.60;;;23.20;63.90;;;;;;6198796;28;20054;-72
2023/08/21 13:56:31;;;;;;;0.40;0.40;;;23.20;63.90;;;;;;6197976;28;20040;-73
2023/08/21 13:59:32;;;;;;;0.50;0.43;;;23.20;63.90;;;;;;6197920;28;20026;-72
2023/08/21 14:02:36;;;;;;;0.47;0.47;;;23.20;63.90;;;;;;6197654;28;20468;-72
2023/08/21 14:05:36;;;;;;;0.80;0.60;;;23.20;63.90;;;;;;6197828;28;20019;-72
2023/08/21 14:08:38;;;;;;;0.40;0.40;;;23.20;63.90;;;;;;6197763;28;20178;-72
2023/08/21 14:11:39;;;;;;;0.43;0.43;;;23.20;63.90;;;;;;6197383;28;20042;-72
2023/08/21 14:14:39;;;;;;;0.38;0.38;;;23.20;63.90;;;;;;6197353;28;20026;-72
2023/08/21 14:17:40;;;;;;;0.28;0.28;;;23.20;63.90;;;;;;6197600;28;20038;-72
2023/08/21 14:20:40;;;;;;;0.57;0.55;;;23.20;63.80;;;;;;6197002;28;20025;-72
2023/08/21 14:23:41;;;;;;;0.43;0.40;;;23.20;63.90;;;;;;6196949;28;20022;-72
2023/08/21 14:26:42;;;;;;;0.43;0.40;;;23.20;63.80;;;;;;6197611;28;20038;-72
2023/08/21 14:29:43;;;;;;;0.43;0.35;;;23.20;63.80;;;;;;6195855;28;20053;-72
2023/08/21 14:32:44;;;;;;;0.32;0.32;;;23.20;64.70;;;;;;6196357;28;20062;-72
2023/08/21 14:35:45;;;;;;;0.40;0.40;;;23.20;63.80;;;;;;6197070;28;20507;-72
2023/08/21 14:38:45;;;;;;;0.40;0.40;;;23.20;63.80;;;;;;6196808;28;20026;-72
2023/08/21 14:41:46;;;;;;;0.30;0.30;;;23.20;63.80;;;;;;6195092;28;20045;-73
2023/08/21 14:44:47;;;;;;;0.60;0.50;;;23.20;63.80;;;;;;6193138;28;20038;-71
2023/08/21 14:47:48;;;;;;;0.50;0.40;;;23.20;63.80;;;;;;6197348;28;20377;-73
2023/08/21 14:50:48;;;;;;;0.68;0.40;;;23.20;63.80;;;;;;6195774;28;20105;-71
2023/08/21 14:53:49;;;;;;;0.35;0.35;;;23.20;63.80;;;;;;6197534;28;20053;-72
2023/08/21 14:56:50;;;;;;;0.65;0.50;;;23.20;63.80;;;;;;6196204;28;20481;-72
2023/08/21 14:59:50;;;;;;;0.40;0.40;;;23.20;64.20;;;;;;6196550;28;20022;-73
2023/08/21 15:02:51;;;;;;;0.40;0.40;;;23.20;63.70;;;;;;6196196;28;20374;-72
2023/08/21 15:05:51;;;;;;;0.32;0.32;;;23.20;63.70;;;;;;6186210;28;20026;-73
2023/08/21 15:08:52;;;;;;;0.60;0.47;;;23.20;64.50;;;;;;6196116;28;20030;-72
2023/08/21 15:11:53;;;;;;;0.35;0.35;;;23.20;63.70;;;;;;6195480;28;20049;-72
2023/08/21 15:14:53;;;;;;;0.85;0.63;;;23.20;63.70;;;;;;6196280;28;20088;-72
2023/08/21 15:17:54;;;;;;;0.68;0.43;;;23.30;63.80;;;;;;6195748;28;20033;-72
2023/08/21 15:20:55;;;;;;;0.40;0.40;;;23.30;63.70;;;;;;6195603;28;20057;-72
2023/08/21 15:23:55;;;;;;;0.38;0.35;;;23.30;63.70;;;;;;6196469;28;20022;-72
2023/08/21 15:26:56;;;;;;;0.50;0.50;;;23.20;63.60;;;;;;6194874;28;20038;-72
2023/08/21 15:29:56;;;;;;;0.55;0.40;;;23.30;63.80;;;;;;6196161;28;20062;-72
2023/08/21 15:32:57;;;;;;;0.52;0.40;;;23.30;63.80;;;;;;6195445;28;20041;-72
2023/08/21 15:35:58;;;;;;;0.65;0.40;;;23.20;63.70;;;;;;6196180;28;20045;-72
2023/08/21 15:38:58;;;;;;;0.40;0.40;;;23.30;63.80;;;;;;6195296;28;20039;-72
2023/08/21 15:41:59;;;;;;;0.40;0.40;;;23.30;63.80;;;;;;6194233;28;20113;-72
2023/08/21 15:44:59;;;;;;;0.30;0.30;;;23.20;63.70;;;;;;6195569;28;20552;-72